createdAt,value
2019-04-21T00:01:12.490Z,23.24
2019-04-21T00:05:41.163Z,23.22
2019-04-21T00:07:51.073Z,23.21
2019-04-21T00:10:02.602Z,23.20
2019-04-21T00:12:02.462Z,23.20
2019-04-21T00:14:01.921Z,23.17
2019-04-21T00:16:00.333Z,23.18
2019-04-21T00:18:16.166Z,23.19
2019-04-21T00:20:31.051Z,23.16
2019-04-21T00:22:41.277Z,23.12
2019-04-21T00:24:51.888Z,23.15
2019-04-21T00:27:01.957Z,23.16
2019-04-21T00:29:21.255Z,23.14
2019-04-21T00:31:16.996Z,23.13
2019-04-21T00:33:12.104Z,23.12
2019-04-21T00:35:17.598Z,23.11
2019-04-21T00:37:31.832Z,23.12
2019-04-21T00:41:55.868Z,23.10
2019-04-21T00:43:53.186Z,23.10
2019-04-21T00:45:58.858Z,23.10
2019-04-21T00:48:16.907Z,23.10
2019-04-21T00:50:17.721Z,23.09
2019-04-21T00:52:53.399Z,23.08
2019-04-21T00:55:01.734Z,23.07
2019-04-21T00:57:05.749Z,23.05
2019-04-21T00:59:10.105Z,23.02
2019-04-21T01:01:16.208Z,23.02
2019-04-21T01:03:20.525Z,23.03
2019-04-21T01:05:27.168Z,23.02
2019-04-21T01:07:37.138Z,23.01
2019-04-21T01:09:34.354Z,23.02
2019-04-21T01:11:49.558Z,23.01
2019-04-21T01:13:58.081Z,23.01
2019-04-21T01:16:07.270Z,22.98
2019-04-21T01:18:12.325Z,23.00
2019-04-21T01:20:09.664Z,22.99
2019-04-21T01:22:01.575Z,22.98
2019-04-21T01:24:13.376Z,22.98
2019-04-21T01:26:25.333Z,22.97
2019-04-21T01:28:41.286Z,22.96
2019-04-21T01:30:50.229Z,22.97
2019-04-21T01:32:53.317Z,22.96
2019-04-21T01:35:02.767Z,22.94
2019-04-21T01:37:04.608Z,22.93
2019-04-21T01:39:35.232Z,22.93
2019-04-21T01:41:28.161Z,22.94
2019-04-21T01:43:27.659Z,22.89
2019-04-21T01:45:33.431Z,22.93
2019-04-21T01:47:44.915Z,22.93
2019-04-21T01:49:37.052Z,22.91
2019-04-21T01:52:08.809Z,22.87
2019-04-21T01:54:28.549Z,22.88
2019-04-21T01:56:57.328Z,22.88
2019-04-21T01:58:51.749Z,22.87
2019-04-21T02:01:07.257Z,22.83
2019-04-21T02:03:34.455Z,22.84
2019-04-21T02:05:31.096Z,22.82
2019-04-21T02:07:33.953Z,22.81
2019-04-21T02:10:02.018Z,22.82
2019-04-21T02:11:53.388Z,22.81
2019-04-21T02:13:58.939Z,22.82
2019-04-21T02:16:02.259Z,22.81
2019-04-21T02:18:06.656Z,22.79
2019-04-21T02:20:06.975Z,22.79
2019-04-21T02:22:19.273Z,22.77
2019-04-21T02:24:34.940Z,22.75
2019-04-21T02:26:37.713Z,22.76
2019-04-21T02:31:07.934Z,22.76
2019-04-21T02:33:34.468Z,22.75
2019-04-21T02:41:45.647Z,22.72
2019-04-21T02:43:42.636Z,22.69
2019-04-21T02:45:47.892Z,22.67
2019-04-21T02:47:57.245Z,22.66
2019-04-21T02:52:14.306Z,22.66
2019-04-21T02:56:29.132Z,22.65
2019-04-21T02:58:34.427Z,22.64
2019-04-21T03:00:57.236Z,22.61
2019-04-21T03:03:15.977Z,22.62
2019-04-21T03:07:44.299Z,22.60
2019-04-21T03:09:46.204Z,22.55
2019-04-21T03:12:05.249Z,22.53
2019-04-21T03:14:13.624Z,22.54
2019-04-21T03:18:22.592Z,22.57
2019-04-21T03:20:23.674Z,22.54
2019-04-21T03:22:24.562Z,22.54
2019-04-21T03:24:53.905Z,22.54
2019-04-21T03:26:48.715Z,22.51
2019-04-21T03:29:05.815Z,22.52
2019-04-21T03:37:35.380Z,22.49
2019-04-21T03:41:52.187Z,22.50
2019-04-21T03:43:44.659Z,22.49
2019-04-21T03:45:46.644Z,22.50
2019-04-21T03:47:53.114Z,22.47
2019-04-21T03:50:08.745Z,22.47
2019-04-21T03:52:11.799Z,22.45
2019-04-21T03:54:13.736Z,22.45
2019-04-21T03:56:42.397Z,22.43
2019-04-21T03:58:34.706Z,22.44
2019-04-21T04:01:00.401Z,22.43
2019-04-21T04:03:46.023Z,22.43
2019-04-21T04:05:59.620Z,22.42
2019-04-21T04:08:22.931Z,22.37
2019-04-21T04:12:13.376Z,22.38
2019-04-21T04:14:26.626Z,22.39
2019-04-21T04:16:26.944Z,22.38
2019-04-21T04:22:56.442Z,22.39
2019-04-21T04:27:11.087Z,22.38
2019-04-21T04:29:10.841Z,22.39
2019-04-21T04:31:25.481Z,22.36
2019-04-21T04:33:34.421Z,22.34
2019-04-21T04:35:38.405Z,22.36
2019-04-21T04:37:36.266Z,22.36
2019-04-21T04:42:29.938Z,22.34
2019-04-21T04:44:39.376Z,22.33
2019-04-21T04:46:37.679Z,22.32
2019-04-21T04:50:51.484Z,22.31
2019-04-21T04:55:03.476Z,22.31
2019-04-21T05:03:40.184Z,22.29
2019-04-21T05:05:43.988Z,22.27
2019-04-21T05:07:52.526Z,22.28
2019-04-21T05:09:52.361Z,22.27
2019-04-21T05:11:50.027Z,22.26
2019-04-21T05:16:09.841Z,22.26
2019-04-21T05:18:13.380Z,22.23
2019-04-21T05:20:17.120Z,22.24
2019-04-21T05:22:22.277Z,22.23
2019-04-21T05:24:23.030Z,22.22
2019-04-21T05:26:27.243Z,22.22
2019-04-21T05:28:32.948Z,22.22
2019-04-21T05:31:09.979Z,22.21
2019-04-21T05:33:27.572Z,22.22
2019-04-21T05:35:49.275Z,22.18
2019-04-21T05:37:59.882Z,22.15
2019-04-21T05:40:10.489Z,22.10
2019-04-21T05:42:09.263Z,22.10
2019-04-21T05:44:37.966Z,22.12
2019-04-21T05:46:42.191Z,22.11
2019-04-21T05:48:48.393Z,22.13
2019-04-21T05:50:53.830Z,22.13
2019-04-21T05:52:53.614Z,22.13
2019-04-21T05:55:11.006Z,22.12
2019-04-21T05:57:18.874Z,22.11
2019-04-21T05:59:20.118Z,22.11
2019-04-21T06:01:33.413Z,22.12
2019-04-21T06:03:44.834Z,22.15
2019-04-21T06:05:55.654Z,22.14
2019-04-21T06:07:53.761Z,22.13
2019-04-21T06:09:59.624Z,22.12
2019-04-21T06:12:08.720Z,22.08
2019-04-21T06:14:14.517Z,22.10
2019-04-21T06:16:43.133Z,22.09
2019-04-21T06:18:37.448Z,22.11
2019-04-21T06:20:37.049Z,22.08
2019-04-21T06:22:49.163Z,22.08
2019-04-21T06:25:15.612Z,22.07
2019-04-21T06:29:03.009Z,22.09
2019-04-21T06:33:19.658Z,22.09
2019-04-21T06:36:21.482Z,22.10
2019-04-21T06:38:05.804Z,22.09
2019-04-21T06:42:16.241Z,22.05
2019-04-21T06:44:24.065Z,22.07
2019-04-21T06:46:42.012Z,22.08
2019-04-21T06:48:40.952Z,22.11
2019-04-21T06:50:51.434Z,22.09
2019-04-21T06:53:01.076Z,22.11
2019-04-21T06:55:02.573Z,22.12
2019-04-21T06:57:07.374Z,22.15
2019-04-21T06:59:21.137Z,22.14
2019-04-21T07:01:15.832Z,22.14
2019-04-21T07:05:33.575Z,22.16
2019-04-21T07:07:35.380Z,22.17
2019-04-21T07:09:48.262Z,22.18
2019-04-21T07:11:53.857Z,22.18
2019-04-21T07:14:05.756Z,22.18
2019-04-21T07:16:06.000Z,22.17
2019-04-21T07:18:17.837Z,22.19
2019-04-21T07:20:18.838Z,22.23
2019-04-21T07:22:33.734Z,22.24
2019-04-21T07:24:33.883Z,22.25
2019-04-21T07:26:40.780Z,22.24
2019-04-21T07:28:51.281Z,22.25
2019-04-21T07:30:59.445Z,22.27
2019-04-21T07:33:07.759Z,22.27
2019-04-21T07:37:10.283Z,22.29
2019-04-21T07:39:18.477Z,22.29
2019-04-21T07:41:22.739Z,22.32
2019-04-21T07:43:24.578Z,22.33
2019-04-21T07:45:30.223Z,22.31
2019-04-21T07:47:53.122Z,22.32
2019-04-21T07:50:07.406Z,22.34
2019-04-21T07:52:28.602Z,22.34
2019-04-21T07:54:42.601Z,22.33
2019-04-21T07:56:24.363Z,22.37
2019-04-21T07:58:53.710Z,22.37
2019-04-21T08:00:59.338Z,22.37
2019-04-21T08:03:05.147Z,22.35
2019-04-21T08:07:21.986Z,22.40
2019-04-21T08:09:19.757Z,22.40
2019-04-21T08:11:28.128Z,22.41
2019-04-21T08:13:41.555Z,22.40
2019-04-21T08:15:49.080Z,22.43
2019-04-21T08:17:47.132Z,22.44
2019-04-21T08:19:53.021Z,22.48
2019-04-21T08:24:07.698Z,22.48
2019-04-21T08:26:17.542Z,22.45
2019-04-21T08:28:26.003Z,22.48
2019-04-21T08:33:05.474Z,22.52
2019-04-21T08:34:55.826Z,22.53
2019-04-21T08:36:51.664Z,22.51
2019-04-21T08:39:03.294Z,22.53
2019-04-21T08:41:08.652Z,22.54
2019-04-21T08:43:21.173Z,22.53
2019-04-21T08:45:21.919Z,22.56
2019-04-21T08:47:25.910Z,22.57
2019-04-21T08:49:36.395Z,22.57
2019-04-21T08:51:37.398Z,22.57
2019-04-21T08:56:19.648Z,22.63
2019-04-21T08:58:35.657Z,22.63
2019-04-21T09:01:08.851Z,22.63
2019-04-21T09:03:28.469Z,22.64
2019-04-21T09:05:29.813Z,22.62
2019-04-21T09:09:47.553Z,22.63
2019-04-21T09:11:55.298Z,22.65
2019-04-21T09:14:00.783Z,22.67
2019-04-21T09:16:06.313Z,22.67
2019-04-21T09:18:10.216Z,22.71
2019-04-21T09:20:43.518Z,22.71
2019-04-21T09:22:24.221Z,22.74
2019-04-21T09:24:33.071Z,22.77
2019-04-21T09:26:34.251Z,22.79
2019-04-21T09:28:39.542Z,22.80
2019-04-21T09:30:43.433Z,22.80
2019-04-21T09:32:42.472Z,22.83
2019-04-21T09:34:49.279Z,22.84
2019-04-21T09:37:10.485Z,22.83
2019-04-21T09:39:09.398Z,22.87
2019-04-21T09:41:15.947Z,22.91
2019-04-21T09:43:26.612Z,22.90
2019-04-21T09:45:24.438Z,22.91
2019-04-21T09:47:38.543Z,22.93
2019-04-21T09:49:39.546Z,22.96
2019-04-21T09:51:45.833Z,22.98
2019-04-21T09:53:57.258Z,22.97
2019-04-21T09:56:03.370Z,23.01
2019-04-21T09:58:15.114Z,23.03
2019-04-21T10:00:19.485Z,23.02
2019-04-21T10:02:32.833Z,23.07
2019-04-21T10:04:26.703Z,23.06
2019-04-21T10:06:32.996Z,23.08
2019-04-21T10:08:38.609Z,23.06
2019-04-21T10:10:44.861Z,23.11
2019-04-21T10:12:50.007Z,23.13
2019-04-21T10:14:55.370Z,23.15
2019-04-21T10:17:21.796Z,23.21
2019-04-21T10:19:27.507Z,23.20
2019-04-21T10:21:33.837Z,23.18
2019-04-21T10:23:39.459Z,23.21
2019-04-21T10:25:44.501Z,23.22
2019-04-21T10:27:49.656Z,23.25
2019-04-21T10:29:55.997Z,23.27
2019-04-21T10:32:01.557Z,23.31
2019-04-21T10:34:07.417Z,23.33
2019-04-21T10:36:13.074Z,23.34
2019-04-21T10:38:28.026Z,23.38
2019-04-21T10:40:27.487Z,23.39
2019-04-21T10:42:33.226Z,23.38
2019-04-21T10:44:38.881Z,23.42
2019-04-21T10:46:46.621Z,23.43
2019-04-21T10:48:50.734Z,23.47
2019-04-21T10:50:56.929Z,23.48
2019-04-21T10:53:20.746Z,23.49
2019-04-21T10:55:44.763Z,23.53
2019-04-21T10:57:34.730Z,23.50
2019-04-21T10:59:46.192Z,23.51
2019-04-21T11:01:47.588Z,23.54
2019-04-21T11:04:27.311Z,23.56
2019-04-21T11:06:28.736Z,23.60
2019-04-21T11:08:37.665Z,23.60
2019-04-21T11:10:41.312Z,23.60
2019-04-21T11:12:47.716Z,23.65
2019-04-21T11:14:53.999Z,23.65
2019-04-21T11:17:00.432Z,23.68
2019-04-21T11:19:06.293Z,23.73
2019-04-21T11:21:11.462Z,23.73
2019-04-21T11:23:19.186Z,23.77
2019-04-21T11:25:24.310Z,23.79
2019-04-21T11:27:30.948Z,23.81
2019-04-21T11:29:37.124Z,23.83
2019-04-21T11:31:43.110Z,23.82
2019-04-21T11:33:49.154Z,23.86
2019-04-21T11:35:55.134Z,23.87
2019-04-21T11:38:09.566Z,23.90
2019-04-21T11:40:13.147Z,23.89
2019-04-21T11:42:21.963Z,23.92
2019-04-21T11:44:27.354Z,23.95
2019-04-21T11:46:32.402Z,23.97
2019-04-21T11:48:37.453Z,24.02
2019-04-21T11:50:43.337Z,24.02
2019-04-21T11:52:49.324Z,24.04
2019-04-21T11:54:55.077Z,24.06
2019-04-21T11:57:03.487Z,24.08
2019-04-21T11:59:07.987Z,24.11
2019-04-21T12:01:13.903Z,24.10
2019-04-21T12:03:20.363Z,24.15
2019-04-21T12:05:26.023Z,24.15
2019-04-21T12:07:31.289Z,24.17
2019-04-21T12:09:37.647Z,24.20
2019-04-21T12:11:43.219Z,24.23
2019-04-21T12:13:48.477Z,24.24
2019-04-21T12:15:54.701Z,24.26
2019-04-21T12:17:59.927Z,24.28
2019-04-21T12:20:06.375Z,24.30
2019-04-21T12:22:21.106Z,24.32
2019-04-21T12:24:19.438Z,24.32
2019-04-21T12:26:24.544Z,24.35
2019-04-21T12:28:30.231Z,24.35
2019-04-21T12:30:35.768Z,24.38
2019-04-21T12:33:12.095Z,24.37
2019-04-21T12:35:17.710Z,24.40
2019-04-21T12:37:22.950Z,24.40
2019-04-21T12:39:28.081Z,24.42
2019-04-21T12:41:33.109Z,24.44
2019-04-21T12:43:38.950Z,24.48
2019-04-21T12:45:44.178Z,24.47
2019-04-21T12:47:50.683Z,24.52
2019-04-21T12:49:56.986Z,24.53
2019-04-21T12:52:02.132Z,24.55
2019-04-21T12:54:07.991Z,24.54
2019-04-21T12:56:13.662Z,24.59
2019-04-21T12:58:19.357Z,24.58
2019-04-21T13:00:24.804Z,24.63
2019-04-21T13:02:29.922Z,24.63
2019-04-21T13:04:35.770Z,24.66
2019-04-21T13:06:41.500Z,24.66
2019-04-21T13:08:54.525Z,24.68
2019-04-21T13:10:53.941Z,24.68
2019-04-21T13:13:01.773Z,24.71
2019-04-21T13:15:06.889Z,24.73
2019-04-21T13:17:13.107Z,24.73
2019-04-21T13:19:18.265Z,24.76
2019-04-21T13:21:24.329Z,24.78
2019-04-21T13:23:29.422Z,24.79
2019-04-21T13:25:34.454Z,24.80
2019-04-21T13:27:40.883Z,24.81
2019-04-21T13:29:46.324Z,24.82
2019-04-21T13:31:52.414Z,24.85
2019-04-21T13:33:57.940Z,24.85
2019-04-21T13:36:04.808Z,24.87
2019-04-21T13:38:19.904Z,24.87
2019-04-21T13:40:55.795Z,24.90
2019-04-21T13:42:48.516Z,24.90
2019-04-21T13:44:50.855Z,24.92
2019-04-21T13:46:56.576Z,24.93
2019-04-21T13:49:03.176Z,24.94
2019-04-21T13:51:09.130Z,24.95
2019-04-21T13:53:14.688Z,24.94
2019-04-21T13:55:21.263Z,24.97
2019-04-21T13:57:26.584Z,24.99
2019-04-21T13:59:31.993Z,25.02
2019-04-21T14:01:37.005Z,25.02
2019-04-21T14:03:44.022Z,25.01
2019-04-21T14:05:50.505Z,25.02
2019-04-21T14:07:56.490Z,25.05
2019-04-21T14:10:06.603Z,25.05
2019-04-21T14:12:09.658Z,25.05
2019-04-21T14:14:14.823Z,25.09
2019-04-21T14:16:20.319Z,25.12
2019-04-21T14:18:27.035Z,25.14
2019-04-21T14:20:33.211Z,25.12
2019-04-21T14:22:38.453Z,25.14
2019-04-21T14:24:45.795Z,25.14
2019-04-21T14:26:52.057Z,25.14
2019-04-21T14:28:57.201Z,25.15
2019-04-21T14:31:02.373Z,25.14
2019-04-21T14:33:07.947Z,25.18
2019-04-21T14:35:14.688Z,25.21
2019-04-21T14:37:20.435Z,25.23
2019-04-21T14:39:26.406Z,25.23
2019-04-21T14:41:32.569Z,25.22
2019-04-21T14:43:38.519Z,25.23
2019-04-21T14:45:52.733Z,25.24
2019-04-21T14:48:29.637Z,25.24
2019-04-21T14:51:06.594Z,25.24
2019-04-21T14:53:31.769Z,25.23
2019-04-21T14:55:39.438Z,25.22
2019-04-21T14:57:45.208Z,25.21
2019-04-21T14:59:51.145Z,25.23
2019-04-21T15:01:56.314Z,25.27
2019-04-21T15:04:01.676Z,25.27
2019-04-21T15:06:07.473Z,25.29
2019-04-21T15:08:13.182Z,25.27
2019-04-21T15:10:23.827Z,25.31
2019-04-21T15:12:25.799Z,25.28
2019-04-21T15:14:31.857Z,25.30
2019-04-21T15:16:36.971Z,25.32
2019-04-21T15:18:42.048Z,25.35
2019-04-21T15:20:50.303Z,25.34
2019-04-21T15:22:54.537Z,25.38
2019-04-21T15:25:00.586Z,25.34
2019-04-21T15:27:07.183Z,25.37
2019-04-21T15:29:12.835Z,25.36
2019-04-21T15:31:24.362Z,25.36
2019-04-21T15:33:24.785Z,25.35
2019-04-21T15:35:30.957Z,25.38
2019-04-21T15:37:36.155Z,25.37
2019-04-21T15:39:42.516Z,25.38
2019-04-21T15:41:48.296Z,25.39
2019-04-21T15:43:54.369Z,25.39
2019-04-21T15:46:00.661Z,25.40
2019-04-21T15:48:05.707Z,25.40
2019-04-21T15:50:15.493Z,25.40
2019-04-21T15:52:17.900Z,25.42
2019-04-21T15:54:23.158Z,25.41
2019-04-21T15:56:35.074Z,25.39
2019-04-21T15:58:54.646Z,25.39
2019-04-21T16:01:10.261Z,25.42
2019-04-21T16:03:16.555Z,25.42
2019-04-21T16:05:22.519Z,25.39
2019-04-21T16:07:29.886Z,25.42
2019-04-21T16:09:37.402Z,25.42
2019-04-21T16:11:42.133Z,25.42
2019-04-21T16:13:47.847Z,25.42
2019-04-21T16:15:52.976Z,25.41
2019-04-21T16:17:59.270Z,25.38
2019-04-21T16:20:06.011Z,25.37
2019-04-21T16:22:12.822Z,25.40
2019-04-21T16:24:18.456Z,25.40
2019-04-21T16:26:24.585Z,25.39
2019-04-21T16:28:31.073Z,25.41
2019-04-21T16:30:36.302Z,25.40
2019-04-21T16:32:44.001Z,25.41
2019-04-21T16:34:56.505Z,25.39
2019-04-21T16:36:56.505Z,25.41
2019-04-21T16:39:01.885Z,25.40
2019-04-21T16:41:11.661Z,25.42
2019-04-21T16:43:16.375Z,25.40
2019-04-21T16:45:22.944Z,25.39
2019-04-21T16:47:28.340Z,25.38
2019-04-21T16:49:35.782Z,25.38
2019-04-21T16:51:42.163Z,25.36
2019-04-21T16:53:58.278Z,25.38
2019-04-21T16:56:21.163Z,25.38
2019-04-21T16:58:38.921Z,25.37
2019-04-21T17:00:57.320Z,25.32
2019-04-21T17:02:54.703Z,25.32
2019-04-21T17:05:00.452Z,25.29
2019-04-21T17:07:07.369Z,25.30
2019-04-21T17:09:12.721Z,25.31
2019-04-21T17:11:25.585Z,25.31
2019-04-21T17:13:24.694Z,25.31
2019-04-21T17:15:50.661Z,25.32
2019-04-21T17:18:00.508Z,25.29
2019-04-21T17:19:47.603Z,25.30
2019-04-21T17:21:52.123Z,25.28
2019-04-21T17:23:58.714Z,25.28
2019-04-21T17:26:05.346Z,25.28
2019-04-21T17:28:12.087Z,25.27
2019-04-21T17:30:17.214Z,25.30
2019-04-21T17:32:27.279Z,25.26
2019-04-21T17:34:31.657Z,25.27
2019-04-21T17:36:37.144Z,25.27
2019-04-21T17:38:42.267Z,25.24
2019-04-21T17:40:47.682Z,25.23
2019-04-21T17:43:01.526Z,25.24
2019-04-21T17:45:01.312Z,25.22
2019-04-21T17:47:20.084Z,25.22
2019-04-21T17:49:14.902Z,25.22
2019-04-21T17:51:55.113Z,25.21
2019-04-21T17:54:08.240Z,25.20
2019-04-21T17:56:31.796Z,25.17
2019-04-21T17:58:32.004Z,25.14
2019-04-21T18:01:05.540Z,25.13
2019-04-21T18:02:54.727Z,25.15
2019-04-21T18:05:03.701Z,25.13
2019-04-21T18:07:27.271Z,25.16
2019-04-21T18:09:37.388Z,25.15
2019-04-21T18:11:42.765Z,25.08
2019-04-21T18:13:26.783Z,25.07
2019-04-21T18:15:49.342Z,25.04
2019-04-21T18:17:40.490Z,25.07
2019-04-21T18:19:49.146Z,25.06
2019-04-21T18:22:03.091Z,25.04
2019-04-21T18:24:15.408Z,25.02
2019-04-21T18:26:27.105Z,24.99
2019-04-21T18:28:22.832Z,25.02
2019-04-21T18:30:46.889Z,25.02
2019-04-21T18:32:54.618Z,24.96
2019-04-21T18:35:13.241Z,24.98
2019-04-21T18:37:40.867Z,24.96
2019-04-21T18:39:57.561Z,24.94
2019-04-21T18:42:31.284Z,24.92
2019-04-21T18:45:22.219Z,24.92
2019-04-21T18:47:25.710Z,24.90
2019-04-21T18:49:43.716Z,24.83
2019-04-21T18:52:06.804Z,24.80
2019-04-21T18:54:29.956Z,24.78
2019-04-21T18:56:18.883Z,24.77
2019-04-21T18:58:22.590Z,24.78
2019-04-21T19:00:31.750Z,24.79
2019-04-21T19:02:40.443Z,24.76
2019-04-21T19:04:42.806Z,24.77
2019-04-21T19:07:02.939Z,24.77
2019-04-21T19:09:12.014Z,24.76
2019-04-21T19:11:24.071Z,24.73
2019-04-21T19:13:41.912Z,24.72
2019-04-21T19:15:32.815Z,24.67
2019-04-21T19:22:00.602Z,24.64
2019-04-21T19:24:16.651Z,24.61
2019-04-21T19:26:14.896Z,24.59
2019-04-21T19:28:13.019Z,24.60
2019-04-21T19:30:30.085Z,24.57
2019-04-21T19:32:28.832Z,24.55
2019-04-21T19:34:24.008Z,24.52
2019-04-21T19:36:25.489Z,24.51
2019-04-21T19:38:45.806Z,24.47
2019-04-21T19:40:50.806Z,24.46
2019-04-21T19:42:55.860Z,24.44
2019-04-21T19:45:06.075Z,24.42
2019-04-21T19:47:19.867Z,24.43
2019-04-21T19:49:27.973Z,24.40
2019-04-21T19:51:26.427Z,24.38
2019-04-21T19:53:29.953Z,24.37
2019-04-21T19:55:27.738Z,24.35
2019-04-21T19:57:32.852Z,24.33
2019-04-21T19:59:44.633Z,24.29
2019-04-21T20:01:47.675Z,24.26
2019-04-21T20:03:57.181Z,24.31
2019-04-21T20:06:10.306Z,24.26
2019-04-21T20:08:22.457Z,24.25
2019-04-21T20:10:35.167Z,24.25
2019-04-21T20:12:39.886Z,24.20
2019-04-21T20:16:50.390Z,24.22
2019-04-21T20:18:48.090Z,24.20
2019-04-21T20:20:48.130Z,24.16
2019-04-21T20:22:54.258Z,24.18
2019-04-21T20:25:07.892Z,24.16
2019-04-21T20:27:15.909Z,24.14
2019-04-21T20:29:32.350Z,24.13
2019-04-21T20:31:37.408Z,24.11
2019-04-21T20:35:59.203Z,24.09
2019-04-21T20:37:57.673Z,24.08
2019-04-21T20:39:54.862Z,24.07
2019-04-21T20:42:11.341Z,24.04
2019-04-21T20:44:19.516Z,24.03
2019-04-21T20:46:24.626Z,24.03
2019-04-21T20:48:29.932Z,24.03
2019-04-21T20:50:33.446Z,24.01
2019-04-21T20:52:50.503Z,23.99
2019-04-21T20:54:48.125Z,23.97
2019-04-21T20:57:02.252Z,23.98
2019-04-21T20:59:10.934Z,23.95
2019-04-21T21:01:25.648Z,23.94
2019-04-21T21:03:24.439Z,23.94
2019-04-21T21:05:22.112Z,23.92
2019-04-21T21:07:53.801Z,23.92
2019-04-21T21:09:42.957Z,23.92
2019-04-21T21:11:56.759Z,23.88
2019-04-21T21:14:05.729Z,23.89
2019-04-21T21:16:10.277Z,23.87
2019-04-21T21:18:15.537Z,23.87
2019-04-21T21:20:18.080Z,23.86
2019-04-21T21:22:14.500Z,23.83
2019-04-21T21:24:36.551Z,23.82
2019-04-21T21:26:38.248Z,23.81
2019-04-21T21:28:39.079Z,23.82
2019-04-21T21:30:43.515Z,23.78
2019-04-21T21:32:56.148Z,23.78
2019-04-21T21:35:03.726Z,23.76
2019-04-21T21:37:21.684Z,23.78
2019-04-21T21:39:18.392Z,23.75
2019-04-21T21:41:16.336Z,23.74
2019-04-21T21:43:19.482Z,23.72
2019-04-21T21:45:24.884Z,23.72
2019-04-21T21:47:49.944Z,23.70
2019-04-21T21:49:49.777Z,23.68
2019-04-21T21:51:55.976Z,23.71
2019-04-21T21:53:48.555Z,23.69
2019-04-21T21:55:53.635Z,23.69
2019-04-21T21:58:03.467Z,23.67
2019-04-21T22:00:08.622Z,23.67
2019-04-21T22:02:24.091Z,23.66
2019-04-21T22:04:26.796Z,23.67
2019-04-21T22:06:38.738Z,23.67
2019-04-21T22:08:36.527Z,23.65
2019-04-21T22:10:43.181Z,23.64
2019-04-21T22:12:55.437Z,23.62
2019-04-21T22:14:55.627Z,23.60
2019-04-21T22:17:20.749Z,23.62
2019-04-21T22:19:22.545Z,23.61
2019-04-21T22:21:34.671Z,23.61
2019-04-21T22:23:34.002Z,23.61
2019-04-21T22:25:33.389Z,23.58
2019-04-21T22:27:34.996Z,23.56
2019-04-21T22:29:44.026Z,23.54
2019-04-21T22:31:48.258Z,23.53
2019-04-21T22:34:00.375Z,23.52
2019-04-21T22:36:09.770Z,23.54
2019-04-21T22:38:19.069Z,23.54
2019-04-21T22:40:25.892Z,23.52
2019-04-21T22:42:27.658Z,23.49
2019-04-21T22:44:28.217Z,23.51
2019-04-21T22:46:33.259Z,23.51
2019-04-21T22:48:40.913Z,23.50
2019-04-21T22:50:46.607Z,23.50
2019-04-21T22:52:56.651Z,23.49
2019-04-21T22:55:03.250Z,23.49
2019-04-21T22:57:12.894Z,23.47
2019-04-21T22:59:18.197Z,23.47
2019-04-21T23:01:25.173Z,23.47
2019-04-21T23:03:28.184Z,23.45
2019-04-21T23:05:36.342Z,23.44
2019-04-21T23:07:44.160Z,23.43
2019-04-21T23:09:47.433Z,23.41
2019-04-21T23:11:56.073Z,23.41
2019-04-21T23:14:04.309Z,23.43
2019-04-21T23:16:07.878Z,23.41
2019-04-21T23:18:30.654Z,23.40
2019-04-21T23:20:38.813Z,23.37
2019-04-21T23:22:52.654Z,23.36
2019-04-21T23:24:54.420Z,23.35
2019-04-21T23:26:54.440Z,23.36
2019-04-21T23:29:07.506Z,23.35
2019-04-21T23:31:12.359Z,23.35
2019-04-21T23:33:06.579Z,23.35
2019-04-21T23:35:18.350Z,23.33
2019-04-21T23:37:18.477Z,23.34
2019-04-21T23:39:25.419Z,23.32
2019-04-21T23:41:36.024Z,23.33
2019-04-21T23:43:35.427Z,23.32
2019-04-21T23:45:44.603Z,23.28
2019-04-21T23:48:01.652Z,23.30
2019-04-21T23:50:05.285Z,23.28
2019-04-21T23:52:07.091Z,23.29
2019-04-21T23:54:09.304Z,23.28
2019-04-21T23:56:23.187Z,23.25
2019-04-21T23:58:25.562Z,23.26
